createdAt,value
2022-09-12T00:03:09.938Z,13.08
2022-09-12T00:08:12.753Z,12.99
2022-09-12T00:13:14.217Z,13.02
2022-09-12T00:18:16.886Z,12.98
2022-09-12T00:23:19.217Z,12.79
2022-09-12T00:28:20.605Z,12.92
2022-09-12T00:33:22.248Z,12.64
2022-09-12T00:38:23.809Z,12.68
2022-09-12T00:43:39.526Z,12.87
2022-09-12T00:48:55.941Z,12.90
2022-09-12T00:53:59.921Z,12.88
2022-09-12T00:59:06.973Z,12.63
2022-09-12T01:04:10.738Z,12.78
2022-09-12T01:09:17.007Z,12.88
2022-09-12T01:14:19.789Z,12.76
2022-09-12T01:20:00.182Z,12.78
2022-09-12T01:25:11.987Z,12.88
2022-09-12T01:30:39.342Z,12.75
2022-09-12T01:35:58.931Z,12.75
2022-09-12T01:41:26.956Z,12.80
2022-09-12T01:46:35.755Z,12.87
2022-09-12T01:51:53.314Z,12.86
2022-09-12T01:57:01.440Z,12.82
2022-09-12T02:02:17.961Z,12.96
2022-09-12T02:07:23.690Z,12.82
2022-09-12T02:12:29.377Z,12.77
2022-09-12T02:17:37.989Z,12.76
2022-09-12T02:22:41.796Z,12.87
2022-09-12T02:27:50.749Z,12.74
2022-09-12T02:33:01.484Z,12.73
2022-09-12T02:38:23.542Z,12.78
2022-09-12T02:43:25.082Z,12.79
2022-09-12T02:48:30.430Z,12.89
2022-09-12T02:53:32.288Z,12.86
2022-09-12T02:58:34.393Z,12.82
2022-09-12T03:03:54.908Z,12.86
2022-09-12T03:09:14.892Z,12.75
2022-09-12T03:14:53.684Z,12.68
2022-09-12T03:20:03.500Z,12.62
2022-09-12T03:25:42.378Z,12.51
2022-09-12T03:30:46.469Z,12.59
2022-09-12T03:35:49.166Z,12.67
2022-09-12T03:40:54.702Z,12.66
2022-09-12T03:45:56.597Z,12.63
2022-09-12T03:51:03.093Z,12.48
2022-09-12T03:56:09.666Z,12.54
2022-09-12T04:01:13.524Z,12.60
2022-09-12T04:06:17.973Z,12.52
2022-09-12T04:11:20.566Z,12.49
2022-09-12T04:16:22.055Z,12.58
2022-09-12T04:21:23.715Z,12.43
2022-09-12T04:26:25.163Z,12.46
2022-09-12T04:31:27.020Z,12.13
2022-09-12T04:36:29.539Z,12.29
2022-09-12T04:41:34.087Z,12.28
2022-09-12T04:46:38.176Z,12.34
2022-09-12T04:51:42.137Z,12.31
2022-09-12T04:56:46.299Z,12.39
2022-09-12T05:01:47.936Z,12.13
2022-09-12T05:06:50.140Z,12.31
2022-09-12T05:12:06.902Z,12.16
2022-09-12T05:17:08.405Z,12.26
2022-09-12T05:22:09.983Z,12.25
2022-09-12T05:27:11.489Z,12.46
2022-09-12T05:32:12.906Z,12.32
2022-09-12T05:37:14.404Z,12.29
2022-09-12T05:42:15.891Z,12.39
2022-09-12T05:47:17.279Z,12.28
2022-09-12T05:52:18.706Z,12.36
2022-09-12T05:57:20.163Z,12.50
2022-09-12T06:02:21.925Z,12.57
2022-09-12T06:07:23.416Z,12.49
2022-09-12T06:12:25.657Z,12.68
2022-09-12T06:17:27.109Z,12.97
2022-09-12T06:22:28.537Z,12.79
2022-09-12T06:27:30.161Z,12.86
2022-09-12T06:32:31.545Z,12.99
2022-09-12T06:37:32.955Z,13.15
2022-09-12T06:42:34.325Z,13.37
2022-09-12T06:47:35.907Z,13.25
2022-09-12T06:52:37.337Z,13.50
2022-09-12T06:57:38.731Z,13.47
2022-09-12T07:02:40.246Z,13.55
2022-09-12T07:07:41.688Z,13.72
2022-09-12T07:12:43.115Z,13.75
2022-09-12T07:17:44.609Z,13.93
2022-09-12T07:22:46.005Z,14.00
2022-09-12T07:27:51.093Z,14.06
2022-09-12T07:32:54.398Z,14.22
2022-09-12T07:37:55.867Z,13.98
2022-09-12T07:42:57.264Z,14.24
2022-09-12T07:47:58.790Z,14.53
2022-09-12T07:53:00.366Z,14.81
2022-09-12T07:58:01.770Z,15.56
2022-09-12T08:03:03.505Z,16.83
2022-09-12T08:08:07.988Z,18.17
2022-09-12T08:13:10.804Z,17.13
2022-09-12T08:18:12.442Z,17.76
2022-09-12T08:23:13.899Z,18.64
2022-09-12T08:28:15.463Z,18.40
2022-09-12T08:33:17.023Z,18.66
2022-09-12T08:38:19.587Z,18.85
2022-09-12T08:43:47.864Z,18.53
2022-09-12T08:48:51.851Z,18.70
2022-09-12T08:53:56.362Z,19.10
2022-09-12T08:58:57.845Z,18.83
2022-09-12T09:04:32.757Z,19.34
2022-09-12T09:09:44.349Z,19.43
2022-09-12T09:15:25.501Z,19.46
2022-09-12T09:20:44.861Z,19.64
2022-09-12T09:26:10.013Z,20.09
2022-09-12T09:31:19.797Z,20.42
2022-09-12T09:36:42.357Z,21.28
2022-09-12T09:42:00.922Z,21.60
2022-09-12T09:47:02.676Z,21.59
2022-09-12T09:52:07.101Z,21.80
2022-09-12T09:57:36.399Z,21.85
2022-09-12T10:02:37.933Z,21.99
2022-09-12T10:07:50.312Z,22.17
2022-09-12T10:13:06.037Z,22.09
2022-09-12T10:18:07.445Z,22.38
2022-09-12T10:23:27.723Z,22.32
2022-09-12T10:28:36.566Z,22.51
2022-09-12T10:33:45.035Z,22.69
2022-09-12T10:38:53.396Z,22.64
2022-09-12T10:44:07.262Z,22.57
2022-09-12T10:49:21.936Z,22.60
2022-09-12T10:54:26.896Z,22.79
2022-09-12T10:59:38.686Z,22.51
2022-09-12T11:05:12.819Z,22.72
2022-09-12T11:10:24.254Z,22.74
2022-09-12T11:15:47.378Z,22.53
2022-09-12T11:20:57.734Z,22.05
2022-09-12T11:26:23.531Z,22.68
2022-09-12T11:31:56.111Z,22.00
2022-09-12T11:37:31.490Z,22.12
2022-09-12T11:42:37.476Z,22.04
2022-09-12T11:47:41.769Z,22.17
2022-09-12T11:52:43.402Z,22.20
2022-09-12T11:57:52.821Z,22.10
2022-09-12T12:03:37.016Z,22.22
2022-09-12T12:08:43.659Z,22.18
2022-09-12T12:13:59.143Z,21.90
2022-09-12T12:19:27.475Z,21.60
2022-09-12T12:24:28.998Z,21.82
2022-09-12T12:29:44.257Z,21.94
2022-09-12T12:34:47.641Z,21.86
2022-09-12T12:39:49.040Z,22.01
2022-09-12T12:44:50.927Z,22.01
2022-09-12T12:49:56.488Z,21.90
2022-09-12T12:55:02.025Z,21.86
2022-09-12T13:00:24.663Z,21.95
2022-09-12T13:05:27.979Z,21.68
2022-09-12T13:10:31.099Z,21.75
2022-09-12T13:15:35.381Z,22.23
2022-09-12T13:20:47.130Z,22.12
2022-09-12T13:25:53.369Z,22.24
2022-09-12T13:31:00.172Z,22.02
2022-09-12T13:36:25.835Z,21.96
2022-09-12T13:41:44.823Z,21.82
2022-09-12T13:46:47.331Z,21.45
2022-09-12T13:52:18.989Z,21.90
2022-09-12T13:57:35.621Z,21.78
2022-09-12T14:02:40.107Z,22.19
2022-09-12T14:08:06.462Z,22.02
2022-09-12T14:13:24.097Z,21.59
2022-09-12T14:18:28.813Z,21.57
2022-09-12T14:23:31.895Z,21.19
2022-09-12T14:28:34.110Z,21.86
2022-09-12T14:34:08.350Z,21.92
2022-09-12T14:39:40.050Z,21.83
2022-09-12T14:44:52.011Z,21.57
2022-09-12T14:49:54.106Z,21.42
2022-09-12T14:55:23.123Z,20.98
2022-09-12T15:00:24.589Z,21.10
2022-09-12T15:05:27.278Z,21.00
2022-09-12T15:10:28.643Z,21.13
2022-09-12T15:15:30.447Z,21.18
2022-09-12T15:20:33.329Z,21.94
2022-09-12T15:25:34.881Z,20.96
2022-09-12T15:30:36.313Z,20.98
2022-09-12T15:35:38.121Z,20.98
2022-09-12T15:40:40.090Z,21.11
2022-09-12T15:45:43.458Z,21.09
2022-09-12T15:50:45.360Z,20.93
2022-09-12T15:55:46.746Z,21.14
2022-09-12T16:00:48.526Z,20.95
2022-09-12T16:05:50.952Z,21.24
2022-09-12T16:10:57.188Z,20.61
2022-09-12T16:15:59.713Z,20.29
2022-09-12T16:21:01.309Z,20.22
2022-09-12T16:26:05.915Z,20.11
2022-09-12T16:31:10.299Z,20.08
2022-09-12T16:36:14.291Z,20.03
2022-09-12T16:41:17.330Z,19.95
2022-09-12T16:46:21.801Z,19.88
2022-09-12T16:51:26.913Z,19.83
2022-09-12T16:56:28.453Z,19.79
2022-09-12T17:01:29.953Z,19.73
2022-09-12T17:06:33.122Z,19.67
2022-09-12T17:11:36.981Z,19.61
2022-09-12T17:16:41.403Z,19.57
2022-09-12T17:21:43.668Z,19.59
2022-09-12T17:26:46.354Z,19.57
2022-09-12T17:31:48.316Z,19.38
2022-09-12T17:36:49.843Z,19.24
2022-09-12T17:41:51.229Z,19.13
2022-09-12T17:46:52.637Z,18.92
2022-09-12T17:51:54.026Z,18.60
2022-09-12T17:56:55.411Z,18.51
2022-09-12T18:01:56.945Z,18.41
2022-09-12T18:06:58.552Z,18.26
2022-09-12T18:11:59.946Z,18.16
2022-09-12T18:17:01.469Z,18.11
2022-09-12T18:22:04.864Z,18.00
2022-09-12T18:27:06.293Z,17.91
2022-09-12T18:32:07.671Z,17.79
2022-09-12T18:37:09.065Z,17.81
2022-09-12T18:42:10.477Z,17.82
2022-09-12T18:47:11.899Z,17.61
2022-09-12T18:52:13.361Z,17.51
2022-09-12T18:57:14.854Z,17.31
2022-09-12T19:02:16.628Z,17.24
2022-09-12T19:07:18.056Z,17.18
2022-09-12T19:12:19.548Z,17.12
2022-09-12T19:17:20.930Z,16.92
2022-09-12T19:22:22.361Z,16.97
2022-09-12T19:27:23.935Z,16.83
2022-09-12T19:32:25.310Z,16.79
2022-09-12T19:37:29.547Z,16.64
2022-09-12T19:42:30.977Z,16.62
2022-09-12T19:47:32.370Z,16.48
2022-09-12T19:52:33.883Z,16.42
2022-09-12T19:57:35.430Z,16.22
2022-09-12T20:02:37.078Z,16.17
2022-09-12T20:07:38.638Z,16.42
2022-09-12T20:12:40.199Z,16.20
2022-09-12T20:17:41.584Z,16.16
2022-09-12T20:22:43.029Z,16.15
2022-09-12T20:27:44.500Z,16.07
2022-09-12T20:32:45.901Z,16.01
2022-09-12T20:37:47.369Z,15.80
2022-09-12T20:42:48.859Z,15.74
2022-09-12T20:47:50.264Z,15.65
2022-09-12T20:52:51.787Z,15.55
2022-09-12T20:57:53.224Z,15.56
2022-09-12T21:02:54.655Z,15.57
2022-09-12T21:07:56.137Z,15.60
2022-09-12T21:12:57.621Z,15.54
2022-09-12T21:17:59.017Z,15.27
2022-09-12T21:23:00.691Z,15.51
2022-09-12T21:28:02.370Z,15.23
2022-09-12T21:33:03.822Z,15.21
2022-09-12T21:38:05.283Z,15.30
2022-09-12T21:43:11.835Z,15.08
2022-09-12T21:48:14.127Z,15.16
2022-09-12T21:53:15.584Z,15.09
2022-09-12T21:58:17.213Z,15.25
2022-09-12T22:03:18.649Z,14.72
2022-09-12T22:08:20.061Z,14.89
2022-09-12T22:13:21.565Z,14.95
2022-09-12T22:18:22.992Z,14.90
2022-09-12T22:23:25.156Z,14.76
2022-09-12T22:28:27.014Z,14.49
2022-09-12T22:33:28.462Z,14.65
2022-09-12T22:38:29.947Z,14.42
2022-09-12T22:43:32.542Z,14.38
2022-09-12T22:48:34.014Z,14.41
2022-09-12T22:53:35.938Z,14.17
2022-09-12T22:58:37.462Z,14.19
2022-09-12T23:03:39.051Z,14.15
2022-09-12T23:08:40.637Z,14.19
2022-09-12T23:13:44.333Z,14.11
2022-09-12T23:18:46.565Z,14.29
2022-09-12T23:23:48.725Z,14.25
2022-09-12T23:28:53.325Z,14.12
2022-09-12T23:33:56.348Z,14.27
2022-09-12T23:38:58.141Z,13.84
2022-09-12T23:43:59.681Z,13.83
2022-09-12T23:49:01.263Z,13.65
2022-09-12T23:54:02.808Z,13.66
2022-09-12T23:59:04.268Z,13.72
